sensor_id;sensor_type;location;lat;lon;timestamp;pressure;altitude;pressure_sealevel;temperature;humidity
11672;BME280;5892;43.412;24.612;2022-12-29T00:02:16;101110.72;;;4.16;96.05
11672;BME280;5892;43.412;24.612;2022-12-29T00:04:43;101048.28;;;3.78;96.67
11672;BME280;5892;43.412;24.612;2022-12-29T00:07:12;101129.09;;;4.31;97.30
11672;BME280;5892;43.412;24.612;2022-12-29T00:09:39;101068.97;;;3.84;97.37
11672;BME280;5892;43.412;24.612;2022-12-29T00:12:06;101073.88;;;4.04;97.06
11672;BME280;5892;43.412;24.612;2022-12-29T00:17:11;101053.44;;;3.96;96.59
11672;BME280;5892;43.412;24.612;2022-12-29T00:19:38;101067.31;;;4.00;96.33
11672;BME280;5892;43.412;24.612;2022-12-29T00:22:25;101049.94;;;3.79;97.24
11672;BME280;5892;43.412;24.612;2022-12-29T00:25:10;101126.22;;;4.21;96.89
11672;BME280;5892;43.412;24.612;2022-12-29T00:27:51;101122.53;;;4.27;96.30
11672;BME280;5892;43.412;24.612;2022-12-29T00:46:03;101022.03;;;3.45;95.25
11672;BME280;5892;43.412;24.612;2022-12-29T01:01:25;100990.06;;;3.47;93.71
11672;BME280;5892;43.412;24.612;2022-12-29T01:03:53;101128.31;;;4.52;93.57
11672;BME280;5892;43.412;24.612;2022-12-29T01:06:20;101113.28;;;4.45;94.51
11672;BME280;5892;43.412;24.612;2022-12-29T01:08:47;101020.78;;;3.69;93.86
11672;BME280;5892;43.412;24.612;2022-12-29T01:11:34;101114.69;;;4.31;93.93
11672;BME280;5892;43.412;24.612;2022-12-29T01:13:59;101090.16;;;4.04;94.36
11672;BME280;5892;43.412;24.612;2022-12-29T01:16:28;101112.19;;;4.46;93.34
11672;BME280;5892;43.412;24.612;2022-12-29T01:18:54;101096.69;;;4.41;92.91
11672;BME280;5892;43.412;24.612;2022-12-29T01:21:24;101067.59;;;4.37;92.65
11672;BME280;5892;43.412;24.612;2022-12-29T01:23:55;101092.13;;;4.47;92.09
11672;BME280;5892;43.412;24.612;2022-12-29T01:26:22;101080.69;;;4.23;92.08
11672;BME280;5892;43.412;24.612;2022-12-29T01:28:49;100961.47;;;3.56;91.98
11672;BME280;5892;43.412;24.612;2022-12-29T01:31:17;101050.72;;;4.35;92.36
11672;BME280;5892;43.412;24.612;2022-12-29T01:33:45;101032.66;;;4.02;92.34
11672;BME280;5892;43.412;24.612;2022-12-29T01:36:15;100924.06;;;3.53;91.92
11672;BME280;5892;43.412;24.612;2022-12-29T01:41:20;100923.97;;;3.48;92.37
11672;BME280;5892;43.412;24.612;2022-12-29T01:43:49;100957.59;;;3.86;92.06
11672;BME280;5892;43.412;24.612;2022-12-29T01:46:25;101006.22;;;4.14;92.28
11672;BME280;5892;43.412;24.612;2022-12-29T01:48:59;100960.06;;;3.87;92.55
11672;BME280;5892;43.412;24.612;2022-12-29T01:51:31;101048.47;;;4.48;92.03
11672;BME280;5892;43.412;24.612;2022-12-29T01:54:02;101088.34;;;4.48;91.57
11672;BME280;5892;43.412;24.612;2022-12-29T01:56:33;101040.25;;;4.21;91.53
11672;BME280;5892;43.412;24.612;2022-12-29T01:59:05;101060.31;;;4.42;91.96
11672;BME280;5892;43.412;24.612;2022-12-29T02:01:33;101039.94;;;4.40;92.57
11672;BME280;5892;43.412;24.612;2022-12-29T02:04:01;101057.50;;;4.54;92.05
11672;BME280;5892;43.412;24.612;2022-12-29T02:06:32;101060.16;;;4.49;92.35
11672;BME280;5892;43.412;24.612;2022-12-29T02:09:02;101044.81;;;4.59;91.26
11672;BME280;5892;43.412;24.612;2022-12-29T02:11:31;101026.38;;;4.61;91.10
11672;BME280;5892;43.412;24.612;2022-12-29T02:13:58;101059.94;;;4.55;91.15
11672;BME280;5892;43.412;24.612;2022-12-29T02:16:39;101048.72;;;4.68;91.32
11672;BME280;5892;43.412;24.612;2022-12-29T02:22:23;101033.38;;;4.79;91.08
11672;BME280;5892;43.412;24.612;2022-12-29T02:28:27;100983.47;;;4.37;90.56
11672;BME280;5892;43.412;24.612;2022-12-29T02:31:04;100997.66;;;4.44;90.80
11672;BME280;5892;43.412;24.612;2022-12-29T02:33:45;101020.00;;;4.51;91.70
11672;BME280;5892;43.412;24.612;2022-12-29T02:36:22;100999.81;;;4.42;91.41
11672;BME280;5892;43.412;24.612;2022-12-29T02:38:59;101016.59;;;4.60;91.37
11672;BME280;5892;43.412;24.612;2022-12-29T02:41:32;100994.97;;;4.44;90.93
11672;BME280;5892;43.412;24.612;2022-12-29T02:44:04;101019.56;;;4.59;90.53
11672;BME280;5892;43.412;24.612;2022-12-29T02:46:41;100952.97;;;4.30;90.01
11672;BME280;5892;43.412;24.612;2022-12-29T02:49:13;100977.91;;;4.48;89.56
11672;BME280;5892;43.412;24.612;2022-12-29T02:51:47;101017.25;;;4.73;89.67
11672;BME280;5892;43.412;24.612;2022-12-29T02:54:19;101004.66;;;4.61;89.62
11672;BME280;5892;43.412;24.612;2022-12-29T02:57:07;101017.16;;;4.62;90.19
11672;BME280;5892;43.412;24.612;2022-12-29T02:59:35;101017.03;;;4.52;91.56
11672;BME280;5892;43.412;24.612;2022-12-29T03:02:21;100988.59;;;4.33;91.33
11672;BME280;5892;43.412;24.612;2022-12-29T03:05:05;100966.53;;;4.30;91.44
11672;BME280;5892;43.412;24.612;2022-12-29T03:07:44;101007.53;;;4.50;91.66
11672;BME280;5892;43.412;24.612;2022-12-29T03:10:24;100926.56;;;3.98;92.00
11672;BME280;5892;43.412;24.612;2022-12-29T03:13:02;100983.03;;;4.23;92.99
11672;BME280;5892;43.412;24.612;2022-12-29T03:15:53;101002.22;;;4.38;92.46
11672;BME280;5892;43.412;24.612;2022-12-29T03:18:37;100991.34;;;4.16;92.95
11672;BME280;5892;43.412;24.612;2022-12-29T03:21:11;100933.97;;;3.64;94.32
11672;BME280;5892;43.412;24.612;2022-12-29T03:23:41;100995.50;;;4.02;94.43
11672;BME280;5892;43.412;24.612;2022-12-29T03:26:11;101002.56;;;4.03;94.76
11672;BME280;5892;43.412;24.612;2022-12-29T03:28:43;100994.84;;;3.95;94.77
11672;BME280;5892;43.412;24.612;2022-12-29T03:31:12;100989.44;;;3.95;94.83
11672;BME280;5892;43.412;24.612;2022-12-29T03:33:43;101007.53;;;3.90;95.44
11672;BME280;5892;43.412;24.612;2022-12-29T03:36:16;101006.88;;;3.82;95.00
11672;BME280;5892;43.412;24.612;2022-12-29T03:38:47;100992.91;;;3.74;95.26
11672;BME280;5892;43.412;24.612;2022-12-29T03:41:19;101028.47;;;3.77;95.84
11672;BME280;5892;43.412;24.612;2022-12-29T03:43:47;100950.94;;;3.38;96.21
11672;BME280;5892;43.412;24.612;2022-12-29T03:46:15;100874.84;;;2.56;96.54
11672;BME280;5892;43.412;24.612;2022-12-29T03:48:45;101026.28;;;3.58;97.33
11672;BME280;5892;43.412;24.612;2022-12-29T03:51:12;101018.91;;;3.53;98.01
11672;BME280;5892;43.412;24.612;2022-12-29T03:53:40;101013.31;;;3.43;98.56
11672;BME280;5892;43.412;24.612;2022-12-29T03:56:07;101016.25;;;3.41;99.26
11672;BME280;5892;43.412;24.612;2022-12-29T03:58:34;100998.19;;;3.30;99.99
11672;BME280;5892;43.412;24.612;2022-12-29T04:01:02;100870.28;;;2.28;100.00
11672;BME280;5892;43.412;24.612;2022-12-29T04:03:30;100925.44;;;2.72;100.00
11672;BME280;5892;43.412;24.612;2022-12-29T04:05:59;100951.09;;;2.41;100.00
11672;BME280;5892;43.412;24.612;2022-12-29T04:08:26;100978.88;;;2.77;100.00
11672;BME280;5892;43.412;24.612;2022-12-29T04:10:53;100911.94;;;2.44;100.00
11672;BME280;5892;43.412;24.612;2022-12-29T04:13:20;101028.09;;;3.19;100.00
11672;BME280;5892;43.412;24.612;2022-12-29T04:15:47;101023.38;;;2.97;100.00
11672;BME280;5892;43.412;24.612;2022-12-29T04:18:15;101036.03;;;3.09;100.00
11672;BME280;5892;43.412;24.612;2022-12-29T04:20:44;101030.06;;;2.95;100.00
11672;BME280;5892;43.412;24.612;2022-12-29T04:23:30;101038.16;;;3.07;100.00
11672;BME280;5892;43.412;24.612;2022-12-29T04:25:58;101036.44;;;3.17;100.00
11672;BME280;5892;43.412;24.612;2022-12-29T04:28:25;101025.66;;;3.06;100.00
11672;BME280;5892;43.412;24.612;2022-12-29T04:30:52;100968.09;;;2.65;100.00
11672;BME280;5892;43.412;24.612;2022-12-29T04:33:20;101029.53;;;3.10;100.00
11672;BME280;5892;43.412;24.612;2022-12-29T04:35:47;101036.34;;;3.12;100.00
11672;BME280;5892;43.412;24.612;2022-12-29T04:38:15;100999.47;;;2.94;100.00
11672;BME280;5892;43.412;24.612;2022-12-29T04:40:44;101024.84;;;3.05;100.00
11672;BME280;5892;43.412;24.612;2022-12-29T04:43:11;101050.19;;;2.99;100.00
11672;BME280;5892;43.412;24.612;2022-12-29T04:45:43;101040.63;;;2.80;100.00
11672;BME280;5892;43.412;24.612;2022-12-29T04:48:11;101008.47;;;2.55;100.00
11672;BME280;5892;43.412;24.612;2022-12-29T04:50:39;101049.13;;;2.72;100.00
11672;BME280;5892;43.412;24.612;2022-12-29T04:53:07;101031.66;;;2.51;100.00
11672;BME280;5892;43.412;24.612;2022-12-29T04:55:34;101047.63;;;2.64;100.00
11672;BME280;5892;43.412;24.612;2022-12-29T04:58:03;100992.66;;;2.35;100.00
11672;BME280;5892;43.412;24.612;2022-12-29T05:00:31;101066.66;;;2.69;100.00
11672;BME280;5892;43.412;24.612;2022-12-29T05:02:58;101059.06;;;2.54;100.00
11672;BME280;5892;43.412;24.612;2022-12-29T05:05:31;101054.81;;;2.47;100.00
11672;BME280;5892;43.412;24.612;2022-12-29T05:07:58;101050.72;;;2.44;100.00
11672;BME280;5892;43.412;24.612;2022-12-29T05:10:25;101050.00;;;2.49;100.00
11672;BME280;5892;43.412;24.612;2022-12-29T05:12:52;101066.72;;;2.46;100.00
11672;BME280;5892;43.412;24.612;2022-12-29T05:15:22;101070.84;;;2.37;100.00
11672;BME280;5892;43.412;24.612;2022-12-29T05:17:53;101079.56;;;2.27;100.00
11672;BME280;5892;43.412;24.612;2022-12-29T05:22:55;101053.72;;;2.20;100.00
11672;BME280;5892;43.412;24.612;2022-12-29T05:25:23;101040.94;;;2.03;100.00
11672;BME280;5892;43.412;24.612;2022-12-29T05:27:51;101045.34;;;2.09;100.00
11672;BME280;5892;43.412;24.612;2022-12-29T05:30:18;101058.66;;;2.11;100.00
11672;BME280;5892;43.412;24.612;2022-12-29T05:32:46;101058.66;;;1.99;100.00
11672;BME280;5892;43.412;24.612;2022-12-29T05:35:13;101047.88;;;1.88;100.00
11672;BME280;5892;43.412;24.612;2022-12-29T05:37:40;101058.44;;;2.01;100.00
11672;BME280;5892;43.412;24.612;2022-12-29T05:40:08;101061.84;;;1.96;100.00
11672;BME280;5892;43.412;24.612;2022-12-29T05:42:36;101061.25;;;1.94;100.00
11672;BME280;5892;43.412;24.612;2022-12-29T05:45:04;101071.59;;;1.86;100.00
11672;BME280;5892;43.412;24.612;2022-12-29T05:47:32;101078.88;;;1.85;100.00
11672;BME280;5892;43.412;24.612;2022-12-29T05:57:45;101037.50;;;1.50;100.00
11672;BME280;5892;43.412;24.612;2022-12-29T06:00:13;101080.97;;;1.72;100.00
11672;BME280;5892;43.412;24.612;2022-12-29T06:02:40;101089.38;;;1.52;100.00
11672;BME280;5892;43.412;24.612;2022-12-29T06:05:08;101101.06;;;1.64;100.00
11672;BME280;5892;43.412;24.612;2022-12-29T06:07:35;101106.34;;;1.70;100.00
11672;BME280;5892;43.412;24.612;2022-12-29T06:10:02;101029.91;;;1.17;100.00
11672;BME280;5892;43.412;24.612;2022-12-29T06:12:29;101103.69;;;1.82;100.00
11672;BME280;5892;43.412;24.612;2022-12-29T06:14:58;101123.41;;;1.94;100.00
11672;BME280;5892;43.412;24.612;2022-12-29T06:17:25;101093.56;;;1.89;100.00
11672;BME280;5892;43.412;24.612;2022-12-29T06:19:52;101021.50;;;1.25;100.00
11672;BME280;5892;43.412;24.612;2022-12-29T06:22:20;101112.03;;;2.04;100.00
11672;BME280;5892;43.412;24.612;2022-12-29T06:24:47;101133.06;;;2.13;100.00
11672;BME280;5892;43.412;24.612;2022-12-29T06:27:15;101115.66;;;2.21;100.00
11672;BME280;5892;43.412;24.612;2022-12-29T06:29:43;101132.50;;;2.35;100.00
11672;BME280;5892;43.412;24.612;2022-12-29T06:32:13;101100.63;;;2.02;100.00
11672;BME280;5892;43.412;24.612;2022-12-29T06:34:40;101129.44;;;2.20;100.00
11672;BME280;5892;43.412;24.612;2022-12-29T06:37:07;101011.53;;;1.49;100.00
11672;BME280;5892;43.412;24.612;2022-12-29T06:39:34;101135.97;;;2.47;100.00
11672;BME280;5892;43.412;24.612;2022-12-29T06:42:01;101124.81;;;2.55;100.00
11672;BME280;5892;43.412;24.612;2022-12-29T06:44:33;101136.69;;;2.66;100.00
11672;BME280;5892;43.412;24.612;2022-12-29T06:47:06;101136.78;;;2.82;100.00
11672;BME280;5892;43.412;24.612;2022-12-29T06:49:48;100982.75;;;1.89;100.00
11672;BME280;5892;43.412;24.612;2022-12-29T06:52:15;101072.50;;;2.38;100.00
11672;BME280;5892;43.412;24.612;2022-12-29T06:54:45;101027.88;;;2.52;100.00
11672;BME280;5892;43.412;24.612;2022-12-29T06:57:14;101078.50;;;2.80;100.00
11672;BME280;5892;43.412;24.612;2022-12-29T06:59:43;101056.66;;;2.70;100.00
11672;BME280;5892;43.412;24.612;2022-12-29T07:02:11;101169.31;;;3.39;100.00
11672;BME280;5892;43.412;24.612;2022-12-29T07:04:39;101139.59;;;3.44;99.13
11672;BME280;5892;43.412;24.612;2022-12-29T07:07:12;101122.84;;;3.47;97.53
11672;BME280;5892;43.412;24.612;2022-12-29T07:09:39;101145.56;;;3.74;96.07
11672;BME280;5892;43.412;24.612;2022-12-29T07:12:08;101152.13;;;3.78;95.61
11672;BME280;5892;43.412;24.612;2022-12-29T07:14:37;101133.06;;;3.73;94.81
11672;BME280;5892;43.412;24.612;2022-12-29T07:17:09;101085.34;;;3.56;93.50
11672;BME280;5892;43.412;24.612;2022-12-29T07:19:40;101073.91;;;3.54;93.23
11672;BME280;5892;43.412;24.612;2022-12-29T07:22:13;101072.78;;;3.66;92.32
11672;BME280;5892;43.412;24.612;2022-12-29T07:24:41;101103.16;;;3.68;92.14
11672;BME280;5892;43.412;24.612;2022-12-29T07:27:14;101084.59;;;3.77;92.47
11672;BME280;5892;43.412;24.612;2022-12-29T07:29:42;101110.63;;;3.95;92.33
11672;BME280;5892;43.412;24.612;2022-12-29T07:32:10;101115.16;;;4.06;92.42
11672;BME280;5892;43.412;24.612;2022-12-29T07:34:41;101021.38;;;3.55;91.23
11672;BME280;5892;43.412;24.612;2022-12-29T07:37:14;101123.34;;;4.28;91.21
11672;BME280;5892;43.412;24.612;2022-12-29T07:39:42;101138.13;;;4.37;91.47
11672;BME280;5892;43.412;24.612;2022-12-29T07:42:16;101128.81;;;4.49;90.73
11672;BME280;5892;43.412;24.612;2022-12-29T07:44:45;101106.47;;;4.42;90.58
11672;BME280;5892;43.412;24.612;2022-12-29T07:47:12;101134.25;;;4.71;91.21
11672;BME280;5892;43.412;24.612;2022-12-29T07:49:40;101136.25;;;4.76;90.79
11672;BME280;5892;43.412;24.612;2022-12-29T07:52:08;101108.75;;;4.72;90.67
11672;BME280;5892;43.412;24.612;2022-12-29T07:54:42;100971.75;;;3.93;89.88
11672;BME280;5892;43.412;24.612;2022-12-29T07:57:19;101027.38;;;4.12;90.17
11672;BME280;5892;43.412;24.612;2022-12-29T07:59:52;101116.91;;;4.94;89.94
11672;BME280;5892;43.412;24.612;2022-12-29T08:02:54;101042.91;;;4.38;89.88
11672;BME280;5892;43.412;24.612;2022-12-29T08:06:04;101087.38;;;4.76;90.47
11672;BME280;5892;43.412;24.612;2022-12-29T08:08:49;101043.03;;;4.48;90.39
11672;BME280;5892;43.412;24.612;2022-12-29T08:11:46;101030.84;;;4.51;90.44
11672;BME280;5892;43.412;24.612;2022-12-29T08:14:27;101136.25;;;5.24;90.82
11672;BME280;5892;43.412;24.612;2022-12-29T08:17:09;101082.03;;;5.07;90.19
11672;BME280;5892;43.412;24.612;2022-12-29T08:19:44;101139.66;;;5.36;88.93
11672;BME280;5892;43.412;24.612;2022-12-29T08:22:29;101078.44;;;5.02;89.19
11672;BME280;5892;43.412;24.612;2022-12-29T08:25:25;101042.34;;;4.80;89.07
11672;BME280;5892;43.412;24.612;2022-12-29T08:37:44;101125.78;;;5.33;90.57
11672;BME280;5892;43.412;24.612;2022-12-29T08:40:28;101118.69;;;5.32;90.83
11672;BME280;5892;43.412;24.612;2022-12-29T08:43:09;101119.31;;;5.39;91.35
11672;BME280;5892;43.412;24.612;2022-12-29T08:45:50;101036.84;;;4.75;91.49
11672;BME280;5892;43.412;24.612;2022-12-29T08:48:25;101128.69;;;5.26;91.12
11672;BME280;5892;43.412;24.612;2022-12-29T08:51:11;101091.47;;;4.78;92.64
11672;BME280;5892;43.412;24.612;2022-12-29T08:54:10;101126.34;;;5.13;93.68
11672;BME280;5892;43.412;24.612;2022-12-29T08:56:56;101106.94;;;5.26;92.33
11672;BME280;5892;43.412;24.612;2022-12-29T08:59:39;101101.09;;;5.39;92.29
11672;BME280;5892;43.412;24.612;2022-12-29T09:02:20;101048.03;;;5.32;92.44
11672;BME280;5892;43.412;24.612;2022-12-29T09:05:05;101114.84;;;5.86;91.78
11672;BME280;5892;43.412;24.612;2022-12-29T09:07:47;101110.34;;;5.97;91.10
11672;BME280;5892;43.412;24.612;2022-12-29T09:10:39;101084.13;;;5.86;91.36
11672;BME280;5892;43.412;24.612;2022-12-29T09:13:20;101029.84;;;5.32;92.51
11672;BME280;5892;43.412;24.612;2022-12-29T09:16:03;100962.91;;;4.94;92.64
11672;BME280;5892;43.412;24.612;2022-12-29T09:18:36;101088.03;;;5.95;93.28
11672;BME280;5892;43.412;24.612;2022-12-29T09:21:06;101081.63;;;6.11;92.18
11672;BME280;5892;43.412;24.612;2022-12-29T09:24:13;100944.56;;;5.38;92.19
11672;BME280;5892;43.412;24.612;2022-12-29T09:27:10;101049.63;;;5.91;91.75
11672;BME280;5892;43.412;24.612;2022-12-29T09:30:09;101072.53;;;6.43;90.34
11672;BME280;5892;43.412;24.612;2022-12-29T09:32:50;101061.06;;;6.35;91.59
11672;BME280;5892;43.412;24.612;2022-12-29T09:35:37;100974.19;;;5.82;90.77
11672;BME280;5892;43.412;24.612;2022-12-29T09:38:16;101033.75;;;6.15;90.93
11672;BME280;5892;43.412;24.612;2022-12-29T09:41:05;101071.31;;;6.23;91.37
11672;BME280;5892;43.412;24.612;2022-12-29T09:53:36;100885.38;;;5.50;91.07
11672;BME280;5892;43.412;24.612;2022-12-29T09:56:15;100976.13;;;6.38;90.56
11672;BME280;5892;43.412;24.612;2022-12-29T09:58:52;100887.72;;;5.84;88.84
11672;BME280;5892;43.412;24.612;2022-12-29T10:01:28;101038.94;;;6.79;88.21
11672;BME280;5892;43.412;24.612;2022-12-29T10:03:59;100955.97;;;6.34;88.44
11672;BME280;5892;43.412;24.612;2022-12-29T10:06:33;101033.81;;;7.03;87.66
11672;BME280;5892;43.412;24.612;2022-12-29T10:09:11;101033.00;;;7.07;86.28
11672;BME280;5892;43.412;24.612;2022-12-29T10:12:01;101028.38;;;7.08;86.38
11672;BME280;5892;43.412;24.612;2022-12-29T10:14:49;100855.16;;;5.94;85.56
11672;BME280;5892;43.412;24.612;2022-12-29T10:17:27;101017.69;;;6.86;86.95
11672;BME280;5892;43.412;24.612;2022-12-29T10:20:18;101022.63;;;6.94;86.33
11672;BME280;5892;43.412;24.612;2022-12-29T10:22:59;101020.47;;;7.06;85.73
11672;BME280;5892;43.412;24.612;2022-12-29T10:25:47;101026.47;;;7.13;84.87
11672;BME280;5892;43.412;24.612;2022-12-29T10:28:22;100926.63;;;6.42;85.33
11672;BME280;5892;43.412;24.612;2022-12-29T10:30:51;100960.13;;;6.52;85.33
11672;BME280;5892;43.412;24.612;2022-12-29T10:33:30;101008.97;;;6.84;86.12
11672;BME280;5892;43.412;24.612;2022-12-29T10:36:04;101012.81;;;7.03;85.67
11672;BME280;5892;43.412;24.612;2022-12-29T10:38:42;101003.25;;;6.86;85.32
11672;BME280;5892;43.412;24.612;2022-12-29T10:41:21;101015.78;;;6.87;85.59
11672;BME280;5892;43.412;24.612;2022-12-29T10:43:59;100991.53;;;6.75;86.01
11672;BME280;5892;43.412;24.612;2022-12-29T10:46:34;100959.91;;;6.69;86.26
11672;BME280;5892;43.412;24.612;2022-12-29T10:49:06;100956.34;;;6.53;86.88
11672;BME280;5892;43.412;24.612;2022-12-29T10:51:42;101009.22;;;6.72;87.24
11672;BME280;5892;43.412;24.612;2022-12-29T10:54:31;100913.81;;;6.37;86.63
11672;BME280;5892;43.412;24.612;2022-12-29T10:57:14;100988.00;;;6.90;86.89
11672;BME280;5892;43.412;24.612;2022-12-29T11:00:05;100876.47;;;6.12;86.07
11672;BME280;5892;43.412;24.612;2022-12-29T11:05:32;100986.41;;;7.44;85.29
11672;BME280;5892;43.412;24.612;2022-12-29T11:08:09;100990.78;;;7.55;83.55
11672;BME280;5892;43.412;24.612;2022-12-29T11:11:04;100967.88;;;7.61;83.04
11672;BME280;5892;43.412;24.612;2022-12-29T11:14:08;100908.16;;;7.40;81.76
11672;BME280;5892;43.412;24.612;2022-12-29T11:16:57;100875.44;;;7.45;79.95
11672;BME280;5892;43.412;24.612;2022-12-29T11:19:29;100994.47;;;8.25;78.53
11672;BME280;5892;43.412;24.612;2022-12-29T11:22:23;100922.81;;;7.84;77.96
11672;BME280;5892;43.412;24.612;2022-12-29T11:25:30;100901.81;;;7.85;77.00
11672;BME280;5892;43.412;24.612;2022-12-29T11:28:21;100958.78;;;7.96;78.33
11672;BME280;5892;43.412;24.612;2022-12-29T11:34:34;100944.63;;;7.94;79.21
11672;BME280;5892;43.412;24.612;2022-12-29T11:37:14;100975.41;;;8.05;79.34
11672;BME280;5892;43.412;24.612;2022-12-29T11:40:05;100960.91;;;8.15;79.16
11672;BME280;5892;43.412;24.612;2022-12-29T11:42:47;100857.44;;;7.44;78.02
11672;BME280;5892;43.412;24.612;2022-12-29T11:45:33;100951.34;;;8.17;77.99
11672;BME280;5892;43.412;24.612;2022-12-29T11:48:21;100960.53;;;8.46;77.68
11672;BME280;5892;43.412;24.612;2022-12-29T11:51:22;100937.84;;;8.51;76.78
11672;BME280;5892;43.412;24.612;2022-12-29T11:53:58;100807.66;;;7.82;73.63
11672;BME280;5892;43.412;24.612;2022-12-29T11:59:53;100938.78;;;8.75;72.70
11672;BME280;5892;43.412;24.612;2022-12-29T12:02:45;100946.88;;;8.90;72.51
11672;BME280;5892;43.412;24.612;2022-12-29T12:05:36;100938.66;;;8.96;71.98
11672;BME280;5892;43.412;24.612;2022-12-29T12:08:31;100948.53;;;8.91;71.17
11672;BME280;5892;43.412;24.612;2022-12-29T12:11:08;100937.84;;;8.95;71.84
11672;BME280;5892;43.412;24.612;2022-12-29T12:14:00;100921.13;;;9.02;71.30
11672;BME280;5892;43.412;24.612;2022-12-29T12:17:09;100904.91;;;8.76;70.56
11672;BME280;5892;43.412;24.612;2022-12-29T12:19:44;100920.53;;;9.10;70.74
11672;BME280;5892;43.412;24.612;2022-12-29T12:22:26;100789.69;;;8.30;70.86
11672;BME280;5892;43.412;24.612;2022-12-29T12:25:27;100922.81;;;9.26;71.04
11672;BME280;5892;43.412;24.612;2022-12-29T12:28:09;100905.63;;;9.26;70.07
11672;BME280;5892;43.412;24.612;2022-12-29T12:31:01;100908.81;;;9.33;69.98
11672;BME280;5892;43.412;24.612;2022-12-29T12:33:50;100782.28;;;8.36;70.01
11672;BME280;5892;43.412;24.612;2022-12-29T12:39:46;100844.00;;;9.05;69.55
11672;BME280;5892;43.412;24.612;2022-12-29T12:42:43;100834.50;;;8.97;69.81
11672;BME280;5892;43.412;24.612;2022-12-29T12:45:32;100901.59;;;9.47;69.65
11672;BME280;5892;43.412;24.612;2022-12-29T12:48:30;100854.22;;;9.23;70.21
11672;BME280;5892;43.412;24.612;2022-12-29T12:51:19;100888.75;;;9.43;69.73
11672;BME280;5892;43.412;24.612;2022-12-29T12:54:06;100890.09;;;9.45;68.99
11672;BME280;5892;43.412;24.612;2022-12-29T12:57:00;100824.53;;;8.82;69.41
11672;BME280;5892;43.412;24.612;2022-12-29T12:59:46;100898.97;;;9.32;69.64
11672;BME280;5892;43.412;24.612;2022-12-29T13:02:30;100892.78;;;9.21;69.96
11672;BME280;5892;43.412;24.612;2022-12-29T13:11:22;100736.38;;;8.38;69.89
11672;BME280;5892;43.412;24.612;2022-12-29T13:14:22;100909.34;;;9.35;69.83
11672;BME280;5892;43.412;24.612;2022-12-29T13:17:04;100849.31;;;8.91;70.28
11672;BME280;5892;43.412;24.612;2022-12-29T13:19:41;100887.53;;;9.30;70.41
11672;BME280;5892;43.412;24.612;2022-12-29T13:22:19;100906.34;;;9.37;70.67
11672;BME280;5892;43.412;24.612;2022-12-29T13:25:18;100805.47;;;8.72;70.50
11672;BME280;5892;43.412;24.612;2022-12-29T13:28:16;100908.03;;;9.27;70.19
11672;BME280;5892;43.412;24.612;2022-12-29T13:31:11;100883.84;;;9.16;70.24
11672;BME280;5892;43.412;24.612;2022-12-29T13:34:09;100907.19;;;9.32;70.80
11672;BME280;5892;43.412;24.612;2022-12-29T13:36:53;100920.78;;;9.08;71.31
11672;BME280;5892;43.412;24.612;2022-12-29T13:39:38;100910.00;;;9.22;71.49
11672;BME280;5892;43.412;24.612;2022-12-29T13:42:24;100899.19;;;9.07;71.68
11672;BME280;5892;43.412;24.612;2022-12-29T13:44:57;100920.47;;;9.15;71.42
11672;BME280;5892;43.412;24.612;2022-12-29T13:47:34;100897.28;;;9.07;71.61
11672;BME280;5892;43.412;24.612;2022-12-29T13:50:16;100825.38;;;8.39;71.43
11672;BME280;5892;43.412;24.612;2022-12-29T13:53:03;100870.78;;;8.74;72.31
11672;BME280;5892;43.412;24.612;2022-12-29T13:55:55;100837.06;;;8.49;72.52
11672;BME280;5892;43.412;24.612;2022-12-29T13:58:31;100828.09;;;8.44;73.26
11672;BME280;5892;43.412;24.612;2022-12-29T14:01:18;100906.34;;;9.03;73.44
11672;BME280;5892;43.412;24.612;2022-12-29T14:04:22;100781.25;;;8.17;73.55
11672;BME280;5892;43.412;24.612;2022-12-29T14:07:14;100895.50;;;8.92;73.91
11672;BME280;5892;43.412;24.612;2022-12-29T14:09:58;100846.63;;;8.52;74.63
11672;BME280;5892;43.412;24.612;2022-12-29T14:12:53;100851.84;;;8.43;75.13
11672;BME280;5892;43.412;24.612;2022-12-29T14:15:28;100866.25;;;8.54;75.45
11672;BME280;5892;43.412;24.612;2022-12-29T14:18:15;100842.13;;;8.22;75.77
11672;BME280;5892;43.412;24.612;2022-12-29T14:20:54;100754.25;;;7.71;76.20
11672;BME280;5892;43.412;24.612;2022-12-29T14:23:40;100910.97;;;8.68;76.63
11672;BME280;5892;43.412;24.612;2022-12-29T14:26:14;100908.59;;;8.57;77.13
11672;BME280;5892;43.412;24.612;2022-12-29T14:28:54;100886.06;;;8.26;79.33
11672;BME280;5892;43.412;24.612;2022-12-29T14:31:38;100899.16;;;8.34;79.54
11672;BME280;5892;43.412;24.612;2022-12-29T14:34:30;100911.72;;;8.25;80.66
11672;BME280;5892;43.412;24.612;2022-12-29T14:37:24;100834.97;;;7.77;81.48
11672;BME280;5892;43.412;24.612;2022-12-29T14:40:22;100913.94;;;8.18;82.48
11672;BME280;5892;43.412;24.612;2022-12-29T14:43:13;100921.34;;;8.07;83.23
11672;BME280;5892;43.412;24.612;2022-12-29T14:46:00;100782.28;;;7.07;83.19
11672;BME280;5892;43.412;24.612;2022-12-29T14:48:45;100898.81;;;7.76;84.03
11672;BME280;5892;43.412;24.612;2022-12-29T14:51:31;100900.22;;;7.69;84.21
11672;BME280;5892;43.412;24.612;2022-12-29T14:58:12;100925.84;;;7.62;86.10
11672;BME280;5892;43.412;24.612;2022-12-29T15:00:45;100931.03;;;7.54;86.47
11672;BME280;5892;43.412;24.612;2022-12-29T15:03:23;100902.19;;;7.33;87.06
11672;BME280;5892;43.412;24.612;2022-12-29T15:05:55;100787.53;;;6.53;87.51
11672;BME280;5892;43.412;24.612;2022-12-29T15:08:32;100928.91;;;7.31;88.24
11672;BME280;5892;43.412;24.612;2022-12-29T15:11:18;100934.34;;;7.20;88.67
11672;BME280;5892;43.412;24.612;2022-12-29T15:13:55;100857.25;;;6.79;88.72
11672;BME280;5892;43.412;24.612;2022-12-29T15:16:30;100850.97;;;6.69;89.09
11672;BME280;5892;43.412;24.612;2022-12-29T15:19:21;100846.34;;;6.59;89.81
11672;BME280;5892;43.412;24.612;2022-12-29T15:21:50;100855.28;;;6.50;90.20
11672;BME280;5892;43.412;24.612;2022-12-29T15:24:20;100868.13;;;6.64;90.17